Time;durP1;ratioP1;P1;durP2;ratioP2;P2;SDS_P1;SDS_P2;PMS_P1;PMS_P2;Temp;Humidity;BMP_temperature;BMP_pressure;BME280_temperature;BME280_humidity;BME280_pressure;Samples;Min_cycle;Max_cycle;Signal;HPM_P1;HPM_P2
2023/07/01 00:00:20;;;;;;;6.15;5.93;;;;;;;;;;4144450;28;20122;-61
2023/07/01 00:02:41;;;;;;;5.93;5.68;;;;;;;;;;4149334;28;20046;-61
2023/07/01 00:05:01;;;;;;;5.60;5.40;;;;;;;;;;4151318;28;20436;-61
2023/07/01 00:07:22;;;;;;;5.43;5.15;;;;;;;;;;4151708;28;20100;-60
2023/07/01 00:09:42;;;;;;;6.43;6.00;;;;;;;;;;4148504;28;20080;-61
2023/07/01 00:12:02;;;;;;;6.80;6.43;;;;;;;;;;4145451;28;20049;-61
2023/07/01 00:14:23;;;;;;;6.15;5.95;;;;;;;;;;4154211;28;20273;-61
2023/07/01 00:16:43;;;;;;;8.10;6.75;;;;;;;;;;4151498;28;20091;-61
2023/07/01 00:19:04;;;;;;;5.82;5.22;;;;;;;;;;4150504;28;20092;-61
2023/07/01 00:21:24;;;;;;;6.75;6.32;;;;;;;;;;4154401;28;20061;-61
2023/07/01 00:23:45;;;;;;;6.75;6.45;;;;;;;;;;4153068;28;20057;-61
2023/07/01 00:26:05;;;;;;;6.68;6.38;;;;;;;;;;4150018;28;20111;-61
2023/07/01 00:28:26;;;;;;;6.30;5.90;;;;;;;;;;4150872;28;20245;-61
2023/07/01 00:30:46;;;;;;;4.72;4.53;;;;;;;;;;4152642;28;20052;-61
2023/07/01 00:33:07;;;;;;;5.95;5.55;;;;;;;;;;4152192;28;20049;-61
2023/07/01 00:35:27;;;;;;;5.50;5.28;;;;;;;;;;4149873;28;20100;-61
2023/07/01 00:37:47;;;;;;;6.57;6.00;;;;;;;;;;4141443;28;20234;-61
2023/07/01 00:40:08;;;;;;;7.20;6.75;;;;;;;;;;4152244;28;20049;-61
2023/07/01 00:42:29;;;;;;;6.80;6.28;;;;;;;;;;4152058;28;20052;-61
2023/07/01 00:44:51;;;;;;;;;;;;;;;;;;4153991;28;20054;-61
2023/07/01 00:47:12;;;;;;;4.47;4.18;;;;;;;;;;4152060;28;20235;-61
2023/07/01 00:49:33;;;;;;;4.68;4.38;;;;;;;;;;4149445;28;20099;-61
2023/07/01 00:51:53;;;;;;;3.63;3.45;;;;;;;;;;4148409;28;20241;-61
2023/07/01 00:54:14;;;;;;;4.25;4.05;;;;;;;;;;4149860;28;20045;-61
2023/07/01 00:56:34;;;;;;;6.55;3.67;;;;;;;;;;4151320;28;20096;-61
2023/07/01 00:58:55;;;;;;;3.63;3.53;;;;;;;;;;4152812;28;20096;-61
2023/07/01 01:01:18;;;;;;;3.38;3.28;;;;;;;;;;4146718;28;20061;-59
2023/07/01 01:03:43;;;;;;;3.40;3.30;;;;;;;;;;4150264;28;20372;-59
2023/07/01 01:06:07;;;;;;;2.97;2.78;;;;;;;;;;4145636;28;20048;-59
2023/07/01 01:08:48;;;;;;;3.35;3.05;;;;;;;;;;4148979;28;20088;-59
2023/07/01 01:11:09;;;;;;;3.92;2.67;;;;;;;;;;4136637;28;20080;-59
2023/07/01 01:13:30;;;;;;;4.20;3.90;;;;;;;;;;4150364;28;20084;-59
2023/07/01 01:15:50;;;;;;;4.20;3.85;;;;;;;;;;4154915;28;20061;-58
2023/07/01 01:18:12;;;;;;;3.88;3.65;;;;;;;;;;4152161;28;20419;-59
2023/07/01 01:20:36;;;;;;;3.92;3.60;;;;;;;;;;4132140;28;20044;-59
2023/07/01 01:23:06;;;;;;;4.53;4.22;;;;;;;;;;4149366;28;20041;-59
2023/07/01 01:25:42;;;;;;;4.32;4.13;;;;;;;;;;4148209;28;20110;-59
2023/07/01 01:28:03;;;;;;;3.92;3.83;;;;;;;;;;4148381;28;20126;-59
2023/07/01 01:30:25;;;;;;;3.20;2.88;;;;;;;;;;4149068;28;20447;-60
2023/07/01 01:32:46;;;;;;;4.22;4.07;;;;;;;;;;4151070;28;20053;-59
2023/07/01 01:35:07;;;;;;;4.13;4.03;;;;;;;;;;4149206;28;20117;-59
2023/07/01 01:37:31;;;;;;;3.95;3.58;;;;;;;;;;4146271;28;20040;-59
2023/07/01 01:39:55;;;;;;;3.90;3.80;;;;;;;;;;4147707;28;20049;-59
2023/07/01 01:42:20;;;;;;;2.95;2.85;;;;;;;;;;4149133;28;20053;-59
2023/07/01 01:44:51;;;;;;;4.78;4.55;;;;;;;;;;4150278;28;20053;-59
2023/07/01 01:47:13;;;;;;;5.43;3.53;;;;;;;;;;4149366;28;20407;-59
2023/07/01 01:49:34;;;;;;;4.03;3.93;;;;;;;;;;4149758;28;20041;-59
2023/07/01 01:51:56;;;;;;;4.13;4.00;;;;;;;;;;4150485;28;20061;-59
2023/07/01 01:54:16;;;;;;;4.22;4.03;;;;;;;;;;4153646;28;20125;-59
2023/07/01 01:56:37;;;;;;;5.15;4.95;;;;;;;;;;4140990;28;20234;-58
2023/07/01 01:58:57;;;;;;;4.55;4.25;;;;;;;;;;4151783;28;20052;-59
2023/07/01 02:01:17;;;;;;;4.35;4.15;;;;;;;;;;4155420;28;20045;-59
2023/07/01 02:03:38;;;;;;;4.10;3.78;;;;;;;;;;4152196;28;20045;-59
2023/07/01 02:05:58;;;;;;;3.53;3.42;;;;;;;;;;4154342;28;20120;-59
2023/07/01 02:08:19;;;;;;;4.38;4.18;;;;;;;;;;4152590;28;20053;-58
2023/07/01 02:10:39;;;;;;;4.15;3.92;;;;;;;;;;4151203;28;20110;-59
2023/07/01 02:12:59;;;;;;;3.85;3.63;;;;;;;;;;4145047;28;20054;-59
2023/07/01 02:15:19;;;;;;;4.25;3.65;;;;;;;;;;4151722;28;20097;-59
2023/07/01 02:17:40;;;;;;;4.57;4.43;;;;;;;;;;4150820;28;20053;-59
2023/07/01 02:20:00;;;;;;;3.15;3.05;;;;;;;;;;4151406;28;20049;-59
2023/07/01 02:22:21;;;;;;;4.07;3.95;;;;;;;;;;4155223;28;20069;-59
2023/07/01 02:24:41;;;;;;;4.28;4.07;;;;;;;;;;4153762;28;20049;-59
2023/07/01 02:27:03;;;;;;;4.97;4.78;;;;;;;;;;4152018;28;20050;-59
2023/07/01 02:29:24;;;;;;;4.95;4.63;;;;;;;;;;4151260;28;20293;-59
2023/07/01 02:31:44;;;;;;;3.92;3.83;;;;;;;;;;4152533;28;20048;-58
2023/07/01 02:34:04;;;;;;;3.95;3.80;;;;;;;;;;4152461;28;20405;-59
2023/07/01 02:36:25;;;;;;;4.00;3.90;;;;;;;;;;4151049;28;20085;-59
2023/07/01 02:38:45;;;;;;;3.80;3.67;;;;;;;;;;4153486;28;20069;-59
2023/07/01 02:41:05;;;;;;;3.83;3.63;;;;;;;;;;4153794;28;20053;-58
2023/07/01 02:43:25;;;;;;;4.22;3.92;;;;;;;;;;4150286;28;20063;-59
2023/07/01 02:45:45;;;;;;;3.97;3.78;;;;;;;;;;4151588;28;20280;-59
2023/07/01 02:48:06;;;;;;;3.53;3.42;;;;;;;;;;4149761;28;20048;-59
2023/07/01 02:50:26;;;;;;;3.55;3.25;;;;;;;;;;4150670;28;20081;-59
2023/07/01 02:52:46;;;;;;;5.60;3.80;;;;;;;;;;4149957;28;20273;-59
2023/07/01 02:55:07;;;;;;;3.47;3.28;;;;;;;;;;4152259;28;20106;-59
2023/07/01 02:57:27;;;;;;;3.78;3.65;;;;;;;;;;4153243;28;20245;-59
2023/07/01 02:59:48;;;;;;;3.50;3.40;;;;;;;;;;4150865;28;20045;-59
2023/07/01 03:02:08;;;;;;;3.83;3.60;;;;;;;;;;4146842;28;20363;-59
2023/07/01 03:04:29;;;;;;;5.22;5.03;;;;;;;;;;4152206;28;20318;-59
2023/07/01 03:06:50;;;;;;;3.78;3.58;;;;;;;;;;4156428;28;20053;-59
2023/07/01 03:09:10;;;;;;;4.68;4.40;;;;;;;;;;4155037;28;20061;-58
2023/07/01 03:11:31;;;;;;;3.65;3.55;;;;;;;;;;4153151;28;20076;-59
2023/07/01 03:13:51;;;;;;;4.07;3.88;;;;;;;;;;4152713;28;20061;-58
2023/07/01 03:16:12;;;;;;;5.03;3.70;;;;;;;;;;4152623;28;20096;-59
2023/07/01 03:18:33;;;;;;;3.67;3.47;;;;;;;;;;4151118;28;20081;-59
2023/07/01 03:21:00;;;;;;;3.50;3.40;;;;;;;;;;4150704;28;20049;-59
2023/07/01 03:23:20;;;;;;;3.55;3.45;;;;;;;;;;4148750;28;20292;-59
2023/07/01 03:25:41;;;;;;;4.00;3.80;;;;;;;;;;4149695;28;20106;-59
2023/07/01 03:28:02;;;;;;;3.88;3.58;;;;;;;;;;4151548;28;20085;-59
2023/07/01 03:30:28;;;;;;;3.80;3.67;;;;;;;;;;4152891;28;20149;-59
2023/07/01 03:32:49;;;;;;;3.85;3.53;;;;;;;;;;4151982;28;20080;-59
2023/07/01 03:35:10;;;;;;;3.50;3.40;;;;;;;;;;4152385;28;20134;-58
2023/07/01 03:37:30;;;;;;;5.47;3.17;;;;;;;;;;4152053;28;20081;-59
2023/07/01 03:39:50;;;;;;;3.50;3.30;;;;;;;;;;4150418;28;20061;-59
2023/07/01 03:42:10;;;;;;;4.45;4.15;;;;;;;;;;4149257;28;20069;-59
2023/07/01 03:44:31;;;;;;;3.70;3.60;;;;;;;;;;4135588;28;20262;-59
2023/07/01 03:46:51;;;;;;;4.32;4.00;;;;;;;;;;4153468;28;20243;-59
2023/07/01 03:49:11;;;;;;;4.30;4.20;;;;;;;;;;4151765;28;20048;-58
2023/07/01 03:51:32;;;;;;;4.18;4.07;;;;;;;;;;4152431;28;20045;-59
2023/07/01 03:53:53;;;;;;;5.63;5.13;;;;;;;;;;4150837;28;20088;-59
2023/07/01 03:56:13;;;;;;;5.25;4.65;;;;;;;;;;4149166;28;20045;-59
2023/07/01 03:58:33;;;;;;;4.68;4.22;;;;;;;;;;4150282;28;20092;-59
2023/07/01 04:00:53;;;;;;;4.63;4.10;;;;;;;;;;4149877;28;20368;-59
2023/07/01 04:03:14;;;;;;;4.85;4.22;;;;;;;;;;4152924;28;20092;-58
2023/07/01 04:05:34;;;;;;;5.10;4.63;;;;;;;;;;4152820;28;20060;-58
2023/07/01 04:07:54;;;;;;;4.10;3.05;;;;;;;;;;4151285;28;20080;-58
2023/07/01 04:10:15;;;;;;;5.50;4.68;;;;;;;;;;4149238;28;20045;-58
2023/07/01 04:12:36;;;;;;;7.97;4.65;;;;;;;;;;4144930;28;20105;-59
2023/07/01 04:14:56;;;;;;;4.32;4.05;;;;;;;;;;4146930;28;20376;-59
2023/07/01 04:17:17;;;;;;;5.45;5.05;;;;;;;;;;4149681;28;20088;-59
2023/07/01 04:19:37;;;;;;;4.68;4.35;;;;;;;;;;4149254;28;20061;-59
2023/07/01 04:21:58;;;;;;;5.10;4.68;;;;;;;;;;4152136;28;20087;-59
2023/07/01 04:24:18;;;;;;;5.28;4.80;;;;;;;;;;4150764;28;20049;-59
2023/07/01 04:26:38;;;;;;;4.88;4.57;;;;;;;;;;4147856;28;20052;-58
2023/07/01 04:28:58;;;;;;;4.95;4.57;;;;;;;;;;4146440;28;20147;-59
2023/07/01 04:31:18;;;;;;;4.80;4.60;;;;;;;;;;4148280;28;20089;-59
2023/07/01 04:33:39;;;;;;;4.28;3.90;;;;;;;;;;4148621;28;20092;-58
2023/07/01 04:35:59;;;;;;;4.63;4.10;;;;;;;;;;4150419;28;20080;-59
2023/07/01 04:38:19;;;;;;;4.25;4.05;;;;;;;;;;4152243;28;20373;-58
2023/07/01 04:40:40;;;;;;;4.63;4.43;;;;;;;;;;4150585;28;20093;-59
2023/07/01 04:43:00;;;;;;;4.85;4.57;;;;;;;;;;4150834;28;20084;-58
2023/07/01 04:45:20;;;;;;;4.75;4.65;;;;;;;;;;4135449;28;20117;-58
2023/07/01 04:47:41;;;;;;;4.85;4.55;;;;;;;;;;4148794;28;20056;-58
2023/07/01 04:50:02;;;;;;;4.55;4.45;;;;;;;;;;4148796;28;20081;-59
2023/07/01 04:52:23;;;;;;;4.65;4.55;;;;;;;;;;4151979;28;20052;-58
2023/07/01 04:54:43;;;;;;;4.13;3.63;;;;;;;;;;4152839;28;20356;-58
2023/07/01 04:57:04;;;;;;;3.63;3.42;;;;;;;;;;4151808;28;20241;-58
2023/07/01 04:59:25;;;;;;;3.28;3.08;;;;;;;;;;4151477;28;20057;-58
2023/07/01 05:01:45;;;;;;;3.03;2.92;;;;;;;;;;4149825;28;20107;-58
2023/07/01 05:04:05;;;;;;;4.15;3.65;;;;;;;;;;4148526;28;20050;-58
2023/07/01 05:06:26;;;;;;;3.83;3.63;;;;;;;;;;4147763;28;20053;-58
2023/07/01 05:08:47;;;;;;;3.47;3.33;;;;;;;;;;4149657;28;20090;-58
2023/07/01 05:11:07;;;;;;;4.38;3.85;;;;;;;;;;4150219;28;20052;-59
2023/07/01 05:13:27;;;;;;;3.25;3.15;;;;;;;;;;4150131;28;20085;-58
2023/07/01 05:15:47;;;;;;;4.30;4.10;;;;;;;;;;4149460;28;20092;-58
2023/07/01 05:18:07;;;;;;;4.03;3.83;;;;;;;;;;4147006;28;20106;-58
2023/07/01 05:20:28;;;;;;;3.40;3.25;;;;;;;;;;4148496;28;20049;-58
2023/07/01 05:22:48;;;;;;;5.20;3.33;;;;;;;;;;4149055;28;20104;-59
2023/07/01 05:25:08;;;;;;;6.30;4.20;;;;;;;;;;4149280;28;20085;-58
2023/07/01 05:27:28;;;;;;;4.20;4.00;;;;;;;;;;4149457;28;20056;-58
2023/07/01 05:29:49;;;;;;;4.70;4.45;;;;;;;;;;4147872;28;20390;-58
2023/07/01 05:32:09;;;;;;;4.45;4.35;;;;;;;;;;4149412;28;20080;-58
2023/07/01 05:34:30;;;;;;;4.22;4.03;;;;;;;;;;4149239;28;20049;-58
2023/07/01 05:36:50;;;;;;;3.03;2.90;;;;;;;;;;4148030;28;20060;-58
2023/07/01 05:39:11;;;;;;;4.78;3.92;;;;;;;;;;4148779;28;20048;-58
2023/07/01 05:41:31;;;;;;;4.97;3.35;;;;;;;;;;4139201;28;20254;-58
2023/07/01 05:43:51;;;;;;;3.38;3.28;;;;;;;;;;4149769;28;20053;-58
2023/07/01 05:46:11;;;;;;;3.22;3.13;;;;;;;;;;4152047;28;20110;-59
2023/07/01 05:48:32;;;;;;;5.38;2.47;;;;;;;;;;4149101;28;20060;-58
2023/07/01 05:50:52;;;;;;;3.42;3.20;;;;;;;;;;4147255;28;20049;-58
2023/07/01 05:53:12;;;;;;;3.85;3.60;;;;;;;;;;4144683;28;20053;-58
2023/07/01 05:55:33;;;;;;;3.90;3.50;;;;;;;;;;4149372;28;20057;-58
2023/07/01 05:57:53;;;;;;;3.28;3.10;;;;;;;;;;4154921;28;20309;-58
2023/07/01 06:00:14;;;;;;;4.20;4.03;;;;;;;;;;4152569;28;20057;-58
2023/07/01 06:02:35;;;;;;;3.63;3.53;;;;;;;;;;4151633;28;20050;-58
2023/07/01 06:04:55;;;;;;;2.72;2.63;;;;;;;;;;4150450;28;20057;-58
2023/07/01 06:07:16;;;;;;;3.75;3.58;;;;;;;;;;4150113;28;20084;-59
2023/07/01 06:09:37;;;;;;;3.67;3.47;;;;;;;;;;4148042;28;20060;-59
2023/07/01 06:11:57;;;;;;;4.80;4.45;;;;;;;;;;4146517;28;20392;-60
2023/07/01 06:14:17;;;;;;;4.45;4.13;;;;;;;;;;4152263;28;20056;-59
2023/07/01 06:16:38;;;;;;;4.35;3.85;;;;;;;;;;4152298;28;20097;-59
2023/07/01 06:18:59;;;;;;;4.63;4.15;;;;;;;;;;4150378;28;20060;-59
2023/07/01 06:21:19;;;;;;;4.45;4.13;;;;;;;;;;4152737;28;20052;-59
2023/07/01 06:23:40;;;;;;;4.03;3.10;;;;;;;;;;4151643;28;20048;-59
2023/07/01 06:26:00;;;;;;;3.75;3.63;;;;;;;;;;4148503;28;20088;-59
2023/07/01 06:28:20;;;;;;;3.83;3.65;;;;;;;;;;4148633;28;20053;-60
2023/07/01 06:30:41;;;;;;;4.20;3.70;;;;;;;;;;4148545;28;20233;-60
2023/07/01 06:33:01;;;;;;;3.03;2.83;;;;;;;;;;4148673;28;20045;-59
2023/07/01 06:35:22;;;;;;;5.13;3.85;;;;;;;;;;4150397;28;20053;-60
2023/07/01 06:37:42;;;;;;;2.63;2.53;;;;;;;;;;4150267;28;20085;-60
2023/07/01 06:40:02;;;;;;;3.42;3.33;;;;;;;;;;4149628;28;20165;-60
2023/07/01 06:42:22;;;;;;;9.48;2.88;;;;;;;;;;4149390;28;20085;-60
2023/07/01 06:44:43;;;;;;;2.80;2.67;;;;;;;;;;4135914;28;20097;-60
2023/07/01 06:47:03;;;;;;;3.28;3.17;;;;;;;;;;4148988;28;20110;-60
2023/07/01 06:49:23;;;;;;;2.38;2.17;;;;;;;;;;4151104;28;20248;-60
2023/07/01 06:51:43;;;;;;;3.28;2.42;;;;;;;;;;4152695;28;20077;-60
2023/07/01 06:54:04;;;;;;;2.15;2.05;;;;;;;;;;4153688;28;20081;-60
2023/07/01 06:56:24;;;;;;;2.80;2.60;;;;;;;;;;4152044;28;20081;-60
2023/07/01 06:58:44;;;;;;;2.45;2.35;;;;;;;;;;4151238;28;20383;-60
2023/07/01 07:01:05;;;;;;;1.98;1.88;;;;;;;;;;4149478;28;20237;-60
2023/07/01 07:03:25;;;;;;;1.80;1.70;;;;;;;;;;4148864;28;20053;-60
2023/07/01 07:05:46;;;;;;;2.25;2.15;;;;;;;;;;4151419;28;20053;-60
2023/07/01 07:08:06;;;;;;;2.63;2.03;;;;;;;;;;4151454;28;20245;-60
2023/07/01 07:10:27;;;;;;;2.05;1.95;;;;;;;;;;4152486;28;20061;-60
2023/07/01 07:12:50;;;;;;;1.88;1.77;;;;;;;;;;4151807;28;20044;-60
2023/07/01 07:15:13;;;;;;;2.03;1.92;;;;;;;;;;4150366;28;20084;-60
2023/07/01 07:17:34;;;;;;;2.63;1.88;;;;;;;;;;4157312;28;20131;-60
2023/07/01 07:19:55;;;;;;;1.50;1.40;;;;;;;;;;4155336;28;20057;-60
2023/07/01 07:22:15;;;;;;;2.00;1.90;;;;;;;;;;4150399;28;20060;-60
2023/07/01 07:24:36;;;;;;;3.22;1.90;;;;;;;;;;4150553;28;20157;-60
2023/07/01 07:26:57;;;;;;;1.40;1.35;;;;;;;;;;4153978;28;20045;-60
2023/07/01 07:29:18;;;;;;;1.60;1.50;;;;;;;;;;4154284;28;20061;-60
2023/07/01 07:31:38;;;;;;;1.45;1.45;;;;;;;;;;4149844;28;20411;-60
2023/07/01 07:33:59;;;;;;;1.67;1.58;;;;;;;;;;4150852;28;20233;-60
2023/07/01 07:36:19;;;;;;;1.55;1.55;;;;;;;;;;4135070;28;20050;-60
2023/07/01 07:38:40;;;;;;;1.25;1.25;;;;;;;;;;4147709;28;20053;-60
2023/07/01 07:41:00;;;;;;;1.30;1.20;;;;;;;;;;4150983;28;20057;-60
2023/07/01 07:43:20;;;;;;;1.13;1.13;;;;;;;;;;4152103;28;20092;-60
2023/07/01 07:45:41;;;;;;;1.70;1.60;;;;;;;;;;4152731;28;20100;-60
2023/07/01 07:48:01;;;;;;;1.30;1.20;;;;;;;;;;4152754;28;20084;-60
2023/07/01 07:50:21;;;;;;;1.75;1.65;;;;;;;;;;4152196;28;20066;-60
2023/07/01 07:52:43;;;;;;;1.90;1.35;;;;;;;;;;4151999;28;20356;-60
2023/07/01 07:55:04;;;;;;;3.22;1.48;;;;;;;;;;4150135;28;20050;-60
2023/07/01 07:57:24;;;;;;;2.55;2.08;;;;;;;;;;4149712;28;20101;-60
2023/07/01 07:59:44;;;;;;;1.30;1.30;;;;;;;;;;4152347;28;20276;-61
2023/07/01 08:02:04;;;;;;;1.50;1.40;;;;;;;;;;4152550;28;20048;-61
2023/07/01 08:04:25;;;;;;;1.48;1.38;;;;;;;;;;4152463;28;20050;-60
2023/07/01 08:06:45;;;;;;;1.58;1.20;;;;;;;;;;4150369;28;20049;-61
2023/07/01 08:09:06;;;;;;;1.63;1.42;;;;;;;;;;4148188;28;20372;-60
2023/07/01 08:11:26;;;;;;;1.05;1.05;;;;;;;;;;4149418;28;20114;-60
2023/07/01 08:13:46;;;;;;;1.40;1.40;;;;;;;;;;4150244;28;20102;-61
2023/07/01 08:16:06;;;;;;;1.42;1.42;;;;;;;;;;4151611;28;20104;-61
2023/07/01 08:18:27;;;;;;;1.42;1.38;;;;;;;;;;4153326;28;20122;-61
2023/07/01 08:20:50;;;;;;;1.75;1.65;;;;;;;;;;4152191;28;20048;-60
2023/07/01 08:23:11;;;;;;;1.40;1.30;;;;;;;;;;4150481;28;20080;-60
2023/07/01 08:25:32;;;;;;;1.33;1.23;;;;;;;;;;4149700;28;20094;-61
2023/07/01 08:27:53;;;;;;;1.40;1.40;;;;;;;;;;4149707;28;20085;-61
2023/07/01 08:30:14;;;;;;;2.27;1.23;;;;;;;;;;4149374;28;20049;-61
2023/07/01 08:32:34;;;;;;;1.23;1.23;;;;;;;;;;4149030;28;20510;-61
2023/07/01 08:34:54;;;;;;;1.90;1.80;;;;;;;;;;4151663;28;20092;-60
2023/07/01 08:37:15;;;;;;;1.63;1.52;;;;;;;;;;4150550;28;20049;-61
2023/07/01 08:39:35;;;;;;;1.45;1.35;;;;;;;;;;4149554;28;20321;-61
2023/07/01 08:41:58;;;;;;;3.03;1.52;;;;;;;;;;4146054;28;20233;-60
2023/07/01 08:44:22;;;;;;;2.22;1.42;;;;;;;;;;4148622;28;20250;-61
2023/07/01 08:46:45;;;;;;;1.50;1.40;;;;;;;;;;4150245;28;20052;-60
2023/07/01 08:49:06;;;;;;;1.55;1.45;;;;;;;;;;4150028;28;20091;-61
2023/07/01 08:51:27;;;;;;;1.58;1.48;;;;;;;;;;4151120;28;20044;-61
2023/07/01 08:53:47;;;;;;;1.85;1.75;;;;;;;;;;4152423;28;20079;-61
2023/07/01 08:56:08;;;;;;;3.17;1.30;;;;;;;;;;4151680;28;20081;-61
2023/07/01 08:58:29;;;;;;;1.13;1.13;;;;;;;;;;4150506;28;20069;-61
2023/07/01 09:00:49;;;;;;;1.17;1.17;;;;;;;;;;4149372;28;20083;-61
2023/07/01 09:03:09;;;;;;;2.67;1.55;;;;;;;;;;4151073;28;20084;-61
2023/07/01 09:05:30;;;;;;;1.35;1.35;;;;;;;;;;4153641;28;20057;-61
2023/07/01 09:07:50;;;;;;;1.50;1.27;;;;;;;;;;4153191;28;20076;-61
2023/07/01 09:10:13;;;;;;;1.40;1.25;;;;;;;;;;4147911;28;20061;-61
2023/07/01 09:12:34;;;;;;;1.20;1.20;;;;;;;;;;4150318;28;20057;-60
2023/07/01 09:15:05;;;;;;;1.30;1.30;;;;;;;;;;4149500;28;20049;-61
2023/07/01 09:17:31;;;;;;;1.30;1.20;;;;;;;;;;4143239;28;20080;-60
2023/07/01 09:19:52;;;;;;;1.20;1.20;;;;;;;;;;4148495;28;20049;-61
2023/07/01 09:22:12;;;;;;;1.50;1.40;;;;;;;;;;4150159;28;20048;-61
2023/07/01 09:24:38;;;;;;;3.63;1.63;;;;;;;;;;4152123;28;20421;-61
2023/07/01 09:26:59;;;;;;;3.00;1.25;;;;;;;;;;4151856;28;20076;-61
2023/07/01 09:29:24;;;;;;;1.73;1.10;;;;;;;;;;4152291;28;20080;-61
2023/07/01 09:31:48;;;;;;;1.00;1.00;;;;;;;;;;4149856;28;20050;-61
2023/07/01 09:34:09;;;;;;;1.30;1.27;;;;;;;;;;4149996;28;20061;-61
2023/07/01 09:36:31;;;;;;;1.30;1.30;;;;;;;;;;4150678;28;20049;-60
2023/07/01 09:38:51;;;;;;;1.73;1.10;;;;;;;;;;4150269;28;20065;-61
2023/07/01 09:41:13;;;;;;;1.10;1.05;;;;;;;;;;4148275;28;20052;-61
2023/07/01 09:43:34;;;;;;;1.30;1.15;;;;;;;;;;4151071;28;20093;-61
2023/07/01 09:45:58;;;;;;;1.13;1.02;;;;;;;;;;4148564;28;20053;-61
2023/07/01 09:48:18;;;;;;;2.78;1.00;;;;;;;;;;4148830;28;20053;-61
2023/07/01 09:50:40;;;;;;;1.30;1.20;;;;;;;;;;4148676;28;20404;-61
2023/07/01 09:53:01;;;;;;;;;;;;;;;;;;4148071;28;20049;-60
2023/07/01 09:55:22;;;;;;;1.00;1.00;;;;;;;;;;4147142;28;19971;-60
2023/07/01 09:57:42;;;;;;;1.20;1.10;;;;;;;;;;4151497;28;20065;-60
2023/07/01 10:00:03;;;;;;;1.10;1.10;;;;;;;;;;4149918;28;20245;-60
2023/07/01 10:02:24;;;;;;;1.45;1.13;;;;;;;;;;4149548;28;20079;-60
2023/07/01 10:04:45;;;;;;;1.10;1.00;;;;;;;;;;4148524;28;20049;-60
2023/07/01 10:07:07;;;;;;;1.02;1.02;;;;;;;;;;4145566;28;20092;-60
2023/07/01 10:09:28;;;;;;;1.10;1.10;;;;;;;;;;4151929;28;20049;-60
2023/07/01 10:11:50;;;;;;;1.10;1.10;;;;;;;;;;4139518;28;20052;-60
2023/07/01 10:14:10;;;;;;;1.10;1.10;;;;;;;;;;4152487;28;20145;-60
2023/07/01 10:16:31;;;;;;;1.30;1.20;;;;;;;;;;4151219;28;20061;-61
2023/07/01 10:18:51;;;;;;;0.90;0.90;;;;;;;;;;4150104;28;20407;-60
2023/07/01 10:21:24;;;;;;;1.00;1.00;;;;;;;;;;4148277;28;20054;-60
2023/07/01 10:23:48;;;;;;;0.90;0.90;;;;;;;;;;4148377;28;20265;-60
2023/07/01 10:26:27;;;;;;;1.00;1.00;;;;;;;;;;4150602;28;20057;-60
2023/07/01 10:28:47;;;;;;;1.10;1.10;;;;;;;;;;4151038;28;20049;-60
2023/07/01 10:31:10;;;;;;;1.13;1.10;;;;;;;;;;4152161;28;20077;-60
2023/07/01 10:33:35;;;;;;;0.95;0.95;;;;;;;;;;4153605;28;20153;-60
2023/07/01 10:36:09;;;;;;;1.02;0.93;;;;;;;;;;4152838;28;20133;-60
2023/07/01 10:38:30;;;;;;;1.42;0.95;;;;;;;;;;4152829;28;20050;-60
2023/07/01 10:40:50;;;;;;;1.00;1.00;;;;;;;;;;4152722;28;20050;-60
2023/07/01 10:43:25;;;;;;;0.90;0.90;;;;;;;;;;4151988;28;20156;-60
2023/07/01 10:45:45;;;;;;;1.20;1.10;;;;;;;;;;4151330;28;20072;-60
2023/07/01 10:48:06;;;;;;;1.00;1.00;;;;;;;;;;4151774;28;20237;-60
2023/07/01 10:50:26;;;;;;;2.47;0.93;;;;;;;;;;4153443;28;20085;-61
2023/07/01 10:53:03;;;;;;;1.00;1.00;;;;;;;;;;4153342;28;20367;-60
2023/07/01 10:55:44;;;;;;;1.15;0.95;;;;;;;;;;4152507;28;20065;-61
2023/07/01 10:58:18;;;;;;;1.00;0.90;;;;;;;;;;4151868;28;20106;-60
2023/07/01 11:00:39;;;;;;;1.00;1.00;;;;;;;;;;4151356;28;20049;-60
2023/07/01 11:02:59;;;;;;;0.90;0.90;;;;;;;;;;4149599;28;20269;-60
2023/07/01 11:05:21;;;;;;;0.90;0.90;;;;;;;;;;4150984;28;20328;-60
2023/07/01 11:07:43;;;;;;;1.00;0.90;;;;;;;;;;4154381;28;20089;-60
2023/07/01 11:10:05;;;;;;;0.98;0.98;;;;;;;;;;4153261;28;20236;-60
2023/07/01 11:12:27;;;;;;;;;;;;;;;;;;4135710;28;20054;-61
2023/07/01 11:14:47;;;;;;;1.00;1.00;;;;;;;;;;4150074;28;19924;-60
2023/07/01 11:17:11;;;;;;;0.82;0.80;;;;;;;;;;4151571;28;20229;-60
2023/07/01 11:19:32;;;;;;;0.80;0.80;;;;;;;;;;4149294;28;20057;-60
2023/07/01 11:21:52;;;;;;;0.82;0.80;;;;;;;;;;4153502;28;20049;-60
2023/07/01 11:24:12;;;;;;;1.50;0.80;;;;;;;;;;4152160;28;20073;-61
2023/07/01 11:26:35;;;;;;;1.17;0.90;;;;;;;;;;4153469;28;20044;-61
2023/07/01 11:28:56;;;;;;;1.30;1.30;;;;;;;;;;4150556;28;20045;-60
2023/07/01 11:31:16;;;;;;;0.80;0.80;;;;;;;;;;4146236;28;20061;-60
2023/07/01 11:33:37;;;;;;;3.60;0.88;;;;;;;;;;4145337;28;20057;-60
2023/07/01 11:35:57;;;;;;;0.90;0.90;;;;;;;;;;4149787;28;20048;-60
2023/07/01 11:38:27;;;;;;;0.90;0.90;;;;;;;;;;4151465;28;20045;-60
2023/07/01 11:40:47;;;;;;;0.90;0.90;;;;;;;;;;4152260;28;20061;-60
2023/07/01 11:43:07;;;;;;;1.10;1.00;;;;;;;;;;4152363;28;20096;-61
2023/07/01 11:45:30;;;;;;;1.20;1.20;;;;;;;;;;4151702;28;20404;-61
2023/07/01 11:47:50;;;;;;;1.02;1.00;;;;;;;;;;4151027;28;20245;-60
2023/07/01 11:50:11;;;;;;;1.65;1.55;;;;;;;;;;4149965;28;20406;-61
2023/07/01 11:52:31;;;;;;;1.10;1.00;;;;;;;;;;4148714;28;20045;-61
2023/07/01 11:54:54;;;;;;;1.00;1.00;;;;;;;;;;4151027;28;20111;-61
2023/07/01 11:57:15;;;;;;;1.00;1.00;;;;;;;;;;4154217;28;20112;-61
2023/07/01 11:59:37;;;;;;;1.00;1.00;;;;;;;;;;4154212;28;20245;-60
2023/07/01 12:01:59;;;;;;;1.42;1.33;;;;;;;;;;4151209;28;20268;-61
2023/07/01 12:04:19;;;;;;;1.75;1.65;;;;;;;;;;4151016;28;20088;-61
2023/07/01 12:06:40;;;;;;;1.98;1.67;;;;;;;;;;4149948;28;20376;-60
2023/07/01 12:09:03;;;;;;;1.50;1.05;;;;;;;;;;4148324;28;20057;-61
2023/07/01 12:11:29;;;;;;;2.35;1.58;;;;;;;;;;4150849;28;20277;-61
2023/07/01 12:13:50;;;;;;;1.20;1.10;;;;;;;;;;4152774;28;20044;-60
2023/07/01 12:16:12;;;;;;;0.90;0.90;;;;;;;;;;4150975;28;20111;-61
2023/07/01 12:18:32;;;;;;;1.00;0.90;;;;;;;;;;4150140;28;20044;-60
2023/07/01 12:20:53;;;;;;;2.40;1.08;;;;;;;;;;4147913;28;20050;-61
2023/07/01 12:23:13;;;;;;;1.02;1.02;;;;;;;;;;4144520;28;20096;-61
2023/07/01 12:25:33;;;;;;;1.10;1.10;;;;;;;;;;4148669;28;20045;-61
2023/07/01 12:27:54;;;;;;;1.80;1.70;;;;;;;;;;4149059;28;20049;-61
2023/07/01 12:30:14;;;;;;;1.17;1.10;;;;;;;;;;4149247;28;20049;-61
2023/07/01 12:32:34;;;;;;;1.33;1.20;;;;;;;;;;4149811;28;20138;-60
2023/07/01 12:34:56;;;;;;;1.40;1.30;;;;;;;;;;4148616;28;20045;-61
2023/07/01 12:37:16;;;;;;;1.52;1.42;;;;;;;;;;4149670;28;20094;-59
2023/07/01 12:39:41;;;;;;;6.00;1.83;;;;;;;;;;4149490;28;20403;-60
2023/07/01 12:42:02;;;;;;;1.02;1.02;;;;;;;;;;4149682;28;20048;-61
2023/07/01 12:44:23;;;;;;;1.52;1.42;;;;;;;;;;4148268;28;20048;-60
2023/07/01 12:46:44;;;;;;;1.42;1.33;;;;;;;;;;4149923;28;20048;-61
2023/07/01 12:49:05;;;;;;;1.00;1.00;;;;;;;;;;4149875;28;20237;-60
2023/07/01 12:51:25;;;;;;;1.40;1.30;;;;;;;;;;4151442;28;20307;-60
2023/07/01 12:53:46;;;;;;;1.30;1.20;;;;;;;;;;4149329;28;20084;-60
2023/07/01 12:56:06;;;;;;;1.42;1.33;;;;;;;;;;4146204;28;20075;-60
2023/07/01 12:58:26;;;;;;;1.10;1.10;;;;;;;;;;4145051;28;20064;-61
2023/07/01 13:00:47;;;;;;;1.10;1.10;;;;;;;;;;4150444;28;20037;-60
2023/07/01 13:03:25;;;;;;;1.55;1.45;;;;;;;;;;4151629;28;20053;-61
2023/07/01 13:05:46;;;;;;;41.75;8.43;;;;;;;;;;4151151;28;20072;-61
2023/07/01 13:08:06;;;;;;;1.30;1.20;;;;;;;;;;4151710;28;20049;-60
2023/07/01 13:10:26;;;;;;;1.65;1.38;;;;;;;;;;4150574;28;20097;-61
2023/07/01 13:12:48;;;;;;;1.90;1.80;;;;;;;;;;4149405;28;20049;-61
2023/07/01 13:15:18;;;;;;;1.40;1.30;;;;;;;;;;4144760;28;20052;-60
2023/07/01 13:17:41;;;;;;;1.95;1.17;;;;;;;;;;4151833;28;20061;-61
2023/07/01 13:20:02;;;;;;;2.20;1.40;;;;;;;;;;4153159;28;20060;-61
2023/07/01 13:22:23;;;;;;;1.47;1.37;;;;;;;;;;4151699;28;20285;-60
2023/07/01 13:24:44;;;;;;;1.30;1.20;;;;;;;;;;4149951;28;20333;-61
2023/07/01 13:27:05;;;;;;;1.20;1.20;;;;;;;;;;4148919;28;20406;-61
2023/07/01 13:29:26;;;;;;;1.13;1.13;;;;;;;;;;4146853;28;20088;-61
2023/07/01 13:31:47;;;;;;;1.48;1.10;;;;;;;;;;4149671;28;20075;-60
2023/07/01 13:34:08;;;;;;;1.30;1.23;;;;;;;;;;4133229;28;20150;-60
2023/07/01 13:36:32;;;;;;;1.60;1.50;;;;;;;;;;4149036;28;20045;-61
2023/07/01 13:38:53;;;;;;;1.13;1.10;;;;;;;;;;4149910;28;20371;-61
2023/07/01 13:41:16;;;;;;;1.95;1.05;;;;;;;;;;4150994;28;20093;-61
2023/07/01 13:43:36;;;;;;;1.45;1.20;;;;;;;;;;4149095;28;20121;-61
2023/07/01 13:45:56;;;;;;;1.50;1.45;;;;;;;;;;4150663;28;20040;-61
2023/07/01 13:48:37;;;;;;;3.03;2.53;;;;;;;;;;4150012;28;20052;-61
2023/07/01 13:50:57;;;;;;;2.30;1.98;;;;;;;;;;4147541;28;20046;-62
2023/07/01 13:53:19;;;;;;;3.40;3.17;;;;;;;;;;4148365;28;20280;-62
2023/07/01 13:55:41;;;;;;;3.63;2.33;;;;;;;;;;4150446;28;20113;-63
2023/07/01 13:58:02;;;;;;;2.10;1.95;;;;;;;;;;4156187;28;20102;-62
2023/07/01 14:00:31;;;;;;;3.20;3.00;;;;;;;;;;4152721;28;20587;-62
2023/07/01 14:02:51;;;;;;;3.47;3.10;;;;;;;;;;4150961;28;20301;-62
2023/07/01 14:05:12;;;;;;;4.95;2.60;;;;;;;;;;4150823;28;20085;-63
2023/07/01 14:07:34;;;;;;;3.65;2.60;;;;;;;;;;4149928;28;20121;-63